Time;durP1;ratioP1;P1;durP2;ratioP2;P2;SDS_P1;SDS_P2;PMS_P1;PMS_P2;Temp;Humidity;BMP_temperature;BMP_pressure;BME280_temperature;BME280_humidity;BME280_pressure;Samples;Min_cycle;Max_cycle;Signal;HPM_P1;HPM_P2
2023/10/22 00:00:07;;;;;;;24.72;7.25;;;;;;;19.24;73.75;99434.77;1522954;90;21330;-81
2023/10/22 00:02:37;;;;;;;23.25;7.20;;;;;;;19.25;73.59;99442.59;1454482;90;22228;-81
2023/10/22 00:05:05;;;;;;;29.75;7.22;;;;;;;19.25;73.55;99437.73;1447109;90;21573;-79
2023/10/22 00:07:33;;;;;;;34.03;8.48;;;;;;;19.23;73.54;99443.34;1450888;89;21400;-81
2023/10/22 00:10:00;;;;;;;21.52;6.78;;;;;;;19.23;73.64;99443.87;1453643;90;21406;-79
2023/10/22 00:12:26;;;;;;;25.82;6.55;;;;;;;19.22;73.62;99451.09;1460565;90;21712;-81
2023/10/22 00:14:52;;;;;;;30.32;7.78;;;;;;;19.21;73.60;99452.13;1450026;90;21384;-79
2023/10/22 00:17:19;;;;;;;28.27;6.30;;;;;;;19.20;73.58;99447.00;1458774;89;21569;-78
2023/10/22 00:19:46;;;;;;;19.67;5.22;;;;;;;19.18;73.59;99443.72;1462692;89;21318;-80
2023/10/22 00:22:14;;;;;;;21.70;5.72;;;;;;;19.15;73.61;99450.36;1445702;90;21613;-80
2023/10/22 00:24:41;;;;;;;26.95;7.03;;;;;;;19.14;73.71;99455.44;1452906;90;21384;-80
2023/10/22 00:27:07;;;;;;;19.12;6.25;;;;;;;19.12;73.67;99461.54;1452817;89;22375;-80
2023/10/22 00:29:33;;;;;;;29.55;7.53;;;;;;;19.11;73.68;99470.64;1446122;90;21354;-80
2023/10/22 00:32:00;;;;;;;29.25;8.05;;;;;;;19.08;73.72;99471.91;1447252;90;21413;-79
2023/10/22 00:34:26;;;;;;;18.32;6.78;;;;;;;19.08;73.70;99473.78;1453560;89;21311;-80
2023/10/22 00:36:52;;;;;;;24.12;7.03;;;;;;;19.07;73.72;99476.14;1448107;90;21362;-79
2023/10/22 00:39:18;;;;;;;27.17;6.87;;;;;;;19.06;73.69;99472.65;1442103;90;21443;-79
2023/10/22 00:41:44;;;;;;;18.87;7.20;;;;;;;19.05;73.71;99469.69;1454849;89;22250;-79
2023/10/22 00:44:11;;;;;;;34.25;7.65;;;;;;;19.05;73.75;99467.53;1453852;89;21443;-80
2023/10/22 00:46:37;;;;;;;28.25;7.35;;;;;;;19.03;73.76;99459.70;1461921;89;21376;-80
2023/10/22 00:49:04;;;;;;;26.15;6.33;;;;;;;19.03;73.84;99456.20;1459749;90;21518;-80
2023/10/22 00:51:30;;;;;;;24.12;6.47;;;;;;;19.01;73.99;99459.63;1453545;89;21340;-78
2023/10/22 00:53:57;;;;;;;27.22;5.83;;;;;;;18.99;74.05;99463.05;1453042;89;22278;-79
2023/10/22 00:56:23;;;;;;;23.62;6.85;;;;;;;18.97;74.06;99462.47;1456179;89;21498;-80
2023/10/22 00:58:50;;;;;;;17.90;6.22;;;;;;;18.94;74.09;99460.53;1450402;90;21466;-80
2023/10/22 01:01:18;;;;;;;19.25;5.42;;;;;;;18.93;74.22;99459.40;1460519;89;22940;-81
2023/10/22 01:03:44;;;;;;;34.18;6.45;;;;;;;18.92;74.27;99453.75;1455475;89;21303;-81
2023/10/22 01:06:13;;;;;;;20.52;5.78;;;;;;;18.90;74.33;99445.95;1452896;90;21590;-80
2023/10/22 01:08:41;;;;;;;32.30;7.17;;;;;;;18.89;74.41;99445.64;1460850;90;22330;-80
2023/10/22 01:11:09;;;;;;;23.38;6.08;;;;;;;18.87;74.53;99451.77;1454431;90;21451;-82
2023/10/22 01:13:36;;;;;;;18.17;5.67;;;;;;;18.85;74.62;99448.48;1448184;90;21435;-80
2023/10/22 01:16:03;;;;;;;18.40;6.10;;;;;;;18.83;74.73;99447.88;1452243;90;21385;-81
2023/10/22 01:18:30;;;;;;;27.35;7.45;;;;;;;18.81;74.83;99441.92;1455388;90;21296;-81
2023/10/22 01:20:56;;;;;;;30.52;7.47;;;;;;;18.80;75.00;99441.63;1452054;89;21494;-82
2023/10/22 01:23:23;;;;;;;24.15;6.28;;;;;;;18.78;75.14;99435.67;1426083;90;22286;-81
2023/10/22 01:25:51;;;;;;;21.20;6.87;;;;;;;18.75;75.31;99427.27;1453605;89;21937;-79
2023/10/22 01:28:17;;;;;;;18.70;6.40;;;;;;;18.71;75.47;99420.98;1456193;89;22440;-81
2023/10/22 01:30:44;;;;;;;21.07;6.65;;;;;;;18.69;75.71;99419.57;1446632;89;21362;-81
2023/10/22 01:33:10;;;;;;;26.37;5.95;;;;;;;18.64;75.90;99424.78;1460817;89;21451;-82
2023/10/22 01:35:37;;;;;;;23.18;6.58;;;;;;;18.61;76.07;99422.03;1453451;89;22419;-82
2023/10/22 01:38:03;;;;;;;21.33;5.75;;;;;;;18.56;76.76;99419.72;1452012;90;21310;-81
2023/10/22 01:40:30;;;;;;;28.83;6.65;;;;;;;18.49;77.29;99421.14;1456792;90;21369;-80
2023/10/22 01:42:56;;;;;;;24.47;7.28;;;;;;;18.48;77.94;99411.48;1455795;90;22549;-82
2023/10/22 01:45:25;;;;;;;26.37;7.37;;;;;;;18.48;78.15;99416.31;1457444;90;21426;-80
2023/10/22 01:47:51;;;;;;;27.55;7.58;;;;;;;18.49;78.11;99411.24;1457028;90;21333;-81
2023/10/22 01:50:18;;;;;;;20.40;5.33;;;;;;;18.49;77.99;99415.78;1450420;90;22212;-82
2023/10/22 01:52:44;;;;;;;27.82;7.78;;;;;;;18.48;77.90;99412.30;1453422;89;21443;-81
2023/10/22 01:55:11;;;;;;;16.82;5.47;;;;;;;18.46;78.01;99410.35;1451762;90;21333;-81
2023/10/22 01:57:38;;;;;;;23.85;6.35;;;;;;;18.44;78.01;99411.12;1451222;89;21266;-80
2023/10/22 02:00:06;;;;;;;24.70;6.75;;;;;;;18.41;77.98;99404.88;1457151;90;22294;-80
2023/10/22 02:02:34;;;;;;;27.85;5.95;;;;;;;18.41;78.02;99405.36;1447824;89;21244;-81
2023/10/22 02:05:00;;;;;;;23.52;6.20;;;;;;;18.38;78.12;99407.97;1447833;90;21443;-81
2023/10/22 02:07:27;;;;;;;20.77;6.97;;;;;;;18.37;78.20;99406.34;1448024;89;21451;-81
2023/10/22 02:09:56;;;;;;;29.52;7.72;;;;;;;18.35;78.23;99402.24;1452890;89;21407;-81
2023/10/22 02:12:29;;;;;;;25.25;6.90;;;;;;;18.32;78.32;99402.17;1442812;90;21414;-81
2023/10/22 02:14:56;;;;;;;24.98;5.35;;;;;;;18.31;78.36;99403.22;1445466;89;22340;-80
2023/10/22 02:17:22;;;;;;;22.85;6.10;;;;;;;18.29;78.46;99403.95;1441963;90;22471;-81
2023/10/22 02:19:49;;;;;;;23.12;7.58;;;;;;;18.27;78.63;99399.36;1451257;89;21385;-82
2023/10/22 02:22:18;;;;;;;23.37;5.70;;;;;;;18.23;78.73;99400.30;1456155;89;21591;-79
2023/10/22 02:24:44;;;;;;;23.45;6.05;;;;;;;18.22;78.75;99403.22;1446248;90;21437;-81
2023/10/22 02:27:10;;;;;;;24.77;6.33;;;;;;;18.21;78.75;99401.56;1448825;89;21959;-79
2023/10/22 02:29:37;;;;;;;22.95;6.58;;;;;;;18.21;78.66;99398.89;1447639;89;21528;-80
2023/10/22 02:32:05;;;;;;;20.20;4.75;;;;;;;18.20;78.72;99397.27;1450857;89;21326;-80
2023/10/22 02:34:31;;;;;;;27.67;5.57;;;;;;;18.20;78.56;99393.24;1454069;89;22510;-79
2023/10/22 02:36:57;;;;;;;16.75;5.65;;;;;;;18.20;78.81;99390.56;1455744;90;21503;-79
2023/10/22 02:39:23;;;;;;;28.05;7.10;;;;;;;18.22;79.05;99395.19;1449539;89;21325;-81
2023/10/22 02:41:49;;;;;;;23.05;5.53;;;;;;;18.26;79.03;99391.82;1460181;89;21539;-81
2023/10/22 02:44:16;;;;;;;23.83;5.57;;;;;;;18.29;78.49;99390.56;1446295;90;21377;-81
2023/10/22 02:46:42;;;;;;;15.10;5.83;;;;;;;18.34;78.07;99396.59;1454333;90;22227;-81
2023/10/22 02:49:08;;;;;;;17.48;6.58;;;;;;;18.36;77.59;99411.41;1454470;90;21370;-81
2023/10/22 02:51:34;;;;;;;18.05;6.60;;;;;;;18.37;77.30;99426.43;1451261;90;21325;-79
2023/10/22 02:54:00;;;;;;;19.90;5.75;;;;;;;18.39;76.90;99436.41;1445767;89;21362;-81
2023/10/22 02:56:26;;;;;;;21.15;5.42;;;;;;;18.40;76.62;99437.23;1466665;89;22381;-80
2023/10/22 02:58:52;;;;;;;21.73;5.72;;;;;;;18.41;76.50;99434.83;1447829;90;21591;-81
2023/10/22 03:01:18;;;;;;;24.92;6.28;;;;;;;18.42;76.22;99425.78;1456647;89;21406;-81
2023/10/22 03:03:44;;;;;;;21.33;5.60;;;;;;;18.42;76.10;99430.61;1462426;90;22301;-79
2023/10/22 03:06:12;;;;;;;24.82;5.72;;;;;;;18.44;75.89;99431.21;1454513;89;21606;-81
2023/10/22 03:08:40;;;;;;;20.52;6.12;;;;;;;18.44;75.67;99429.02;1453714;89;22198;-80
2023/10/22 03:11:18;;;;;;;22.73;6.55;;;;;;;18.45;75.69;99436.86;1446614;89;21377;-80
2023/10/22 03:13:46;;;;;;;14.60;5.65;;;;;;;18.46;75.54;99433.65;1447057;89;22162;-79
2023/10/22 03:16:18;;;;;;;18.95;5.08;;;;;;;18.46;75.54;99443.03;1454957;90;21391;-81
2023/10/22 03:18:44;;;;;;;27.50;6.75;;;;;;;18.45;75.80;99454.27;1437141;90;21487;-81
2023/10/22 03:21:16;;;;;;;14.03;5.42;;;;;;;18.43;76.09;99463.04;1448964;89;21448;-80
2023/10/22 03:23:42;;;;;;;16.00;4.53;;;;;;;18.43;76.21;99472.42;1456929;89;21922;-80
2023/10/22 03:26:15;;;;;;;13.60;4.42;;;;;;;18.40;76.30;99472.86;1449168;90;21391;-80
2023/10/22 03:28:42;;;;;;;18.80;5.22;;;;;;;18.40;76.36;99472.05;1456862;90;21421;-80
2023/10/22 03:31:09;;;;;;;21.75;5.42;;;;;;;18.38;76.37;99472.25;1447580;89;21370;-81
2023/10/22 03:33:35;;;;;;;24.65;5.70;;;;;;;18.39;76.33;99457.03;1447010;89;21443;-81
2023/10/22 03:36:03;;;;;;;19.95;6.90;;;;;;;18.38;76.28;99448.15;1455302;90;21488;-81
2023/10/22 03:38:31;;;;;;;13.28;4.67;;;;;;;18.40;76.11;99451.44;1451392;90;22412;-81
2023/10/22 03:41:04;;;;;;;18.73;5.67;;;;;;;18.41;76.14;99461.13;1456751;89;21443;-81
2023/10/22 03:43:31;;;;;;;16.65;5.90;;;;;;;18.43;76.20;99455.53;1447196;89;21667;-81
2023/10/22 03:45:59;;;;;;;19.40;5.92;;;;;;;18.41;76.33;99459.78;1451097;90;21443;-81
2023/10/22 03:48:27;;;;;;;15.65;4.83;;;;;;;18.41;76.42;99448.23;1465748;89;22353;-80
2023/10/22 03:50:55;;;;;;;21.68;6.17;;;;;;;18.38;76.52;99440.11;1455116;90;21798;-81
2023/10/22 03:53:24;;;;;;;23.05;6.97;;;;;;;18.37;76.67;99432.31;1448826;89;21384;-81
2023/10/22 03:55:51;;;;;;;16.07;4.97;;;;;;;18.36;76.84;99433.37;1452159;90;21534;-80
2023/10/22 03:58:17;;;;;;;13.15;5.37;;;;;;;18.35;76.95;99428.50;1456020;90;21517;-81
2023/10/22 04:00:44;;;;;;;23.75;5.15;;;;;;;18.34;77.52;99428.22;1455563;90;21362;-82
2023/10/22 04:03:10;;;;;;;18.95;5.83;;;;;;;18.33;77.99;99425.25;1454627;89;21406;-82
2023/10/22 04:05:36;;;;;;;22.40;5.47;;;;;;;18.35;78.27;99423.15;1455120;89;22496;-83
2023/10/22 04:08:03;;;;;;;24.05;4.92;;;;;;;18.36;78.12;99422.66;1450510;90;21465;-81
2023/10/22 04:10:29;;;;;;;17.48;4.35;;;;;;;18.37;78.04;99434.47;1451115;89;21421;-82
2023/10/22 04:12:55;;;;;;;21.10;7.03;;;;;;;18.36;77.98;99439.53;1455078;89;21451;-82
2023/10/22 04:15:21;;;;;;;20.82;4.78;;;;;;;18.36;78.01;99444.08;1454350;89;22545;-80
2023/10/22 04:17:48;;;;;;;21.12;4.53;;;;;;;18.34;78.20;99442.14;1446210;89;21385;-82
2023/10/22 04:20:14;;;;;;;11.33;3.45;;;;;;;18.31;78.34;99444.73;1454482;89;21362;-81
2023/10/22 04:22:43;;;;;;;16.95;4.67;;;;;;;18.28;78.67;99442.50;1459680;90;21561;-81
2023/10/22 04:25:13;;;;;;;16.48;4.33;;;;;;;18.25;79.06;99441.61;1450665;89;21539;-83
2023/10/22 04:27:40;;;;;;;16.97;4.45;;;;;;;18.22;79.51;99435.36;1451783;89;21355;-81
2023/10/22 04:30:09;;;;;;;16.80;3.25;;;;;;;18.18;79.77;99425.61;1451895;89;21591;-85
2023/10/22 04:32:36;;;;;;;11.65;3.52;;;;;;;18.14;80.01;99427.61;1462817;90;21491;-80
2023/10/22 04:35:03;;;;;;;18.00;3.17;;;;;;;18.09;80.79;99426.10;1452949;90;21384;-81
2023/10/22 04:37:30;;;;;;;18.25;3.05;;;;;;;18.04;81.31;99430.27;1460171;90;21326;-83
2023/10/22 04:39:56;;;;;;;12.80;3.27;;;;;;;18.01;82.38;99431.21;1456315;89;22353;-81
2023/10/22 04:42:23;;;;;;;12.47;3.37;;;;;;;17.98;82.95;99432.50;1441164;90;22345;-83
2023/10/22 04:44:49;;;;;;;10.23;3.02;;;;;;;17.96;83.14;99437.25;1453932;90;21554;-84
2023/10/22 04:47:16;;;;;;;7.65;2.83;;;;;;;17.94;83.75;99434.48;1453239;90;21370;-83
2023/10/22 04:49:44;;;;;;;11.63;3.60;;;;;;;17.89;84.06;99447.17;1446552;89;21288;-83
2023/10/22 04:52:21;;;;;;;10.53;2.90;;;;;;;17.85;84.13;99449.19;1458042;89;21384;-83
2023/10/22 04:54:40;;;;;;;15.73;3.83;;;;;;;17.80;84.30;99450.64;1451342;90;21903;-83
2023/10/22 04:57:06;;;;;;;14.55;3.58;;;;;;;17.77;84.64;99458.27;1452881;89;22213;-83
2023/10/22 04:59:32;;;;;;;12.47;3.33;;;;;;;17.72;85.44;99462.11;1451287;89;21557;-83
2023/10/22 05:02:00;;;;;;;11.00;2.80;;;;;;;17.68;85.77;99460.91;1448587;89;21428;-80
2023/10/22 05:04:27;;;;;;;9.73;3.77;;;;;;;17.66;86.07;99462.98;1448933;89;21484;-81
2023/10/22 05:06:55;;;;;;;12.70;3.67;;;;;;;17.65;86.45;99464.03;1453132;90;21495;-82
2023/10/22 05:09:21;;;;;;;15.33;3.97;;;;;;;17.66;86.37;99462.98;1459258;89;21421;-80
2023/10/22 05:11:47;;;;;;;12.73;3.40;;;;;;;17.68;86.17;99468.42;1452265;89;21547;-80
2023/10/22 05:14:13;;;;;;;11.73;3.10;;;;;;;17.69;85.89;99462.02;1449119;90;21406;-80
2023/10/22 05:16:39;;;;;;;9.27;3.17;;;;;;;17.70;85.51;99462.34;1451121;90;22450;-81
2023/10/22 05:19:05;;;;;;;16.60;3.60;;;;;;;17.71;85.36;99463.16;1453623;89;21861;-81
2023/10/22 05:21:31;;;;;;;9.40;3.00;;;;;;;17.70;85.27;99469.55;1461668;90;22294;-80
2023/10/22 05:23:58;;;;;;;13.53;3.23;;;;;;;17.69;84.99;99467.89;1456831;90;21435;-80
2023/10/22 05:26:24;;;;;;;15.50;4.10;;;;;;;17.67;84.94;99464.12;1455075;89;21551;-80
2023/10/22 05:28:50;;;;;;;10.00;3.47;;;;;;;17.67;84.95;99467.31;1455512;89;22403;-82
2023/10/22 05:31:20;;;;;;;12.33;3.90;;;;;;;17.68;84.72;99477.78;1459734;90;21536;-81
2023/10/22 05:33:46;;;;;;;16.40;3.20;;;;;;;17.66;84.88;99472.34;1447332;89;21347;-81
2023/10/22 05:36:19;;;;;;;13.63;2.97;;;;;;;17.68;84.79;99476.97;1447936;90;21458;-81
2023/10/22 05:38:47;;;;;;;6.43;3.10;;;;;;;17.70;84.72;99478.39;1452063;89;21578;-86
2023/10/22 05:41:23;;;;;;;18.13;4.30;;;;;;;17.74;84.23;99481.45;1449759;90;22265;-85
2023/10/22 05:43:56;;;;;;;11.23;2.73;;;;;;;17.79;83.94;99493.70;1455076;89;22359;-85
2023/10/22 05:46:23;;;;;;;11.07;3.60;;;;;;;17.83;83.43;99494.89;1455995;89;21554;-86
2023/10/22 05:48:49;;;;;;;12.53;3.10;;;;;;;17.86;82.92;99493.11;1446044;89;21443;-84
2023/10/22 05:51:16;;;;;;;8.83;2.53;;;;;;;17.87;82.08;99493.96;1455496;89;21400;-85
2023/10/22 05:53:42;;;;;;;12.60;3.10;;;;;;;17.91;82.11;99501.84;1454569;89;21466;-82
2023/10/22 05:56:08;;;;;;;11.63;3.70;;;;;;;17.92;81.79;99494.92;1454642;90;22242;-87
2023/10/22 05:58:34;;;;;;;10.03;3.37;;;;;;;17.94;81.63;99503.56;1461299;90;21332;-85
2023/10/22 06:01:00;;;;;;;12.23;2.87;;;;;;;17.94;81.55;99506.23;1451054;90;21421;-84
2023/10/22 06:03:27;;;;;;;9.80;3.50;;;;;;;17.92;80.34;99497.59;1450768;89;21392;-84
2023/10/22 06:05:53;;;;;;;8.17;3.10;;;;;;;17.92;80.31;99490.91;1452443;89;21347;-85
2023/10/22 06:08:19;;;;;;;8.87;2.43;;;;;;;17.93;80.48;99495.23;1455558;89;21363;-85
2023/10/22 06:10:48;;;;;;;9.30;2.87;;;;;;;17.93;80.16;99498.44;1425744;90;22427;-88
2023/10/22 06:13:15;;;;;;;9.13;3.53;;;;;;;17.92;80.25;99498.94;1447572;89;21607;-87
2023/10/22 06:15:44;;;;;;;10.90;3.37;;;;;;;17.89;80.13;99506.06;1454790;90;21362;-83
2023/10/22 06:18:10;;;;;;;10.47;3.67;;;;;;;17.87;80.35;99515.38;1455571;89;21584;-87
2023/10/22 06:20:37;;;;;;;17.77;5.00;;;;;;;17.84;80.26;99519.30;1458603;90;21451;-85
2023/10/22 06:23:06;;;;;;;17.30;4.17;;;;;;;17.83;79.95;99513.63;1462290;89;21378;-81
2023/10/22 06:25:33;;;;;;;12.67;3.40;;;;;;;17.82;80.21;99512.00;1451400;89;21413;-84
2023/10/22 06:28:00;;;;;;;12.43;3.60;;;;;;;17.80;80.29;99519.41;1452314;89;21399;-88
2023/10/22 06:30:27;;;;;;;12.80;2.80;;;;;;;17.81;80.24;99517.06;1459012;89;21385;-83
2023/10/22 06:32:56;;;;;;;9.13;3.50;;;;;;;17.83;80.48;99524.86;1450648;89;21491;-84
2023/10/22 06:35:23;;;;;;;11.33;3.00;;;;;;;17.86;81.00;99533.78;1376887;89;21208;-80
2023/10/22 06:37:51;;;;;;;11.68;2.92;;;;;;;17.87;82.34;99532.77;1378466;90;21215;-82
2023/10/22 06:40:18;;;;;;;14.78;4.25;;;;;;;17.89;82.86;99534.16;1384027;89;21289;-84
2023/10/22 06:42:48;;;;;;;10.55;3.37;;;;;;;17.87;84.99;99533.58;1378969;89;21341;-91
2023/10/22 06:45:15;;;;;;;10.20;2.70;;;;;;;17.85;84.55;99531.63;1401984;90;21399;-90
2023/10/22 06:47:42;;;;;;;11.83;3.40;;;;;;;17.85;87.35;99530.81;1449815;89;21444;-89
2023/10/22 06:50:14;;;;;;;10.53;3.70;;;;;;;17.84;87.91;99540.71;1451146;89;21528;-87
2023/10/22 06:52:45;;;;;;;10.08;3.40;;;;;;;17.84;87.83;99543.39;1453065;90;21363;-86
2023/10/22 06:55:11;;;;;;;12.45;4.17;;;;;;;17.82;88.60;99540.09;1451576;90;21429;-87
2023/10/22 06:57:40;;;;;;;12.83;4.40;;;;;;;17.80;88.77;99544.31;1452647;89;21554;-83
2023/10/22 07:00:09;;;;;;;15.30;3.50;;;;;;;17.78;89.23;99541.06;1446398;89;21679;-88
2023/10/22 07:02:36;;;;;;;13.25;3.47;;;;;;;17.78;89.14;99537.53;1454944;89;22338;-89
2023/10/22 07:05:03;;;;;;;24.83;6.83;;;;;;;17.77;89.68;99540.70;1455143;90;21540;-87
2023/10/22 07:07:30;;;;;;;6.90;3.97;;;;;;;17.75;95.52;99547.30;1455004;90;21575;-87
2023/10/22 07:09:56;;;;;;;13.80;3.90;;;;;;;17.76;93.04;99544.42;1452354;90;21487;-88
2023/10/22 07:12:24;;;;;;;16.50;3.50;;;;;;;17.80;94.33;99544.84;1449226;90;21547;-86
2023/10/22 07:18:52;;;;;;;10.35;3.52;;;;;;;17.87;95.18;99542.14;1452640;90;21648;-83
2023/10/22 07:21:18;;;;;;;10.37;2.43;;;;;;;17.88;98.70;99553.95;1455853;90;21451;-86
2023/10/22 07:23:45;;;;;;;13.70;2.80;;;;;;;17.85;99.68;99550.38;1456471;90;22497;-87
2023/10/22 07:26:11;;;;;;;8.50;2.47;;;;;;;17.89;100.00;99548.89;1451582;90;21414;-85
2023/10/22 07:28:48;;;;;;;12.55;2.52;;;;;;;17.84;100.00;99560.78;1452968;89;21377;-81
2023/10/22 07:31:05;;;;;;;11.35;3.60;;;;;;;17.82;100.00;99554.81;1451897;90;22330;-82
2023/10/22 07:33:33;;;;;;;7.90;2.47;;;;;;;17.77;100.00;99565.31;1453496;90;21539;-80
2023/10/22 07:36:07;;;;;;;6.57;2.27;;;;;;;17.74;100.00;99564.41;1451832;89;22329;-79
2023/10/22 07:38:34;;;;;;;9.93;2.72;;;;;;;17.74;100.00;99575.11;1453836;89;21591;-81
2023/10/22 07:41:00;;;;;;;20.88;2.87;;;;;;;17.73;100.00;99574.82;1450461;90;22389;-80
2023/10/22 07:43:29;;;;;;;5.87;2.42;;;;;;;17.78;100.00;99570.98;1454969;89;21339;-81
2023/10/22 07:46:04;;;;;;;9.65;2.92;;;;;;;17.84;100.00;99567.48;1452389;90;21384;-80
2023/10/22 07:48:27;;;;;;;9.73;2.40;;;;;;;17.89;100.00;99564.95;1449218;89;21501;-81
2023/10/22 07:50:54;;;;;;;7.90;3.22;;;;;;;17.88;100.00;99571.34;1449255;89;21444;-79
2023/10/22 07:53:21;;;;;;;13.15;2.77;;;;;;;17.87;100.00;99568.38;1451901;89;21532;-77
2023/10/22 07:55:47;;;;;;;6.53;3.15;;;;;;;17.84;100.00;99571.49;1446951;89;22270;-80
2023/10/22 07:58:13;;;;;;;6.97;2.45;;;;;;;17.85;100.00;99561.08;1448354;89;21863;-82
2023/10/22 08:00:39;;;;;;;8.98;2.20;;;;;;;17.90;100.00;99576.50;1451721;90;21385;-81
2023/10/22 08:03:06;;;;;;;16.62;1.90;;;;;;;17.93;100.00;99586.77;1443312;90;21687;-81
2023/10/22 08:05:33;;;;;;;6.62;2.30;;;;;;;17.88;100.00;99591.42;1452531;90;21383;-80
2023/10/22 08:07:59;;;;;;;9.90;2.10;;;;;;;17.78;100.00;99592.39;1456588;89;21406;-80
2023/10/22 08:10:25;;;;;;;6.67;2.25;;;;;;;17.69;100.00;99604.36;1454163;89;22810;-82
2023/10/22 08:12:51;;;;;;;6.37;2.25;;;;;;;17.68;100.00;99602.21;1453595;90;21385;-80
2023/10/22 08:15:17;;;;;;;14.20;2.07;;;;;;;17.72;100.00;99599.42;1451583;90;21318;-80
2023/10/22 08:17:43;;;;;;;3.67;1.45;;;;;;;17.83;100.00;99602.47;1453266;90;21407;-78
2023/10/22 08:20:10;;;;;;;7.97;2.12;;;;;;;17.93;100.00;99609.00;1449862;89;21517;-81
2023/10/22 08:22:36;;;;;;;6.10;3.02;;;;;;;18.02;100.00;99609.05;1455780;89;21304;-79
2023/10/22 08:25:03;;;;;;;7.47;2.12;;;;;;;18.12;100.00;99610.42;1451849;90;21376;-80
2023/10/22 08:27:29;;;;;;;7.22;1.87;;;;;;;18.30;100.00;99600.28;1451492;89;21450;-81
2023/10/22 08:29:55;;;;;;;7.97;2.12;;;;;;;18.59;100.00;99621.09;1453216;90;22425;-80
2023/10/22 08:32:21;;;;;;;5.83;2.90;;;;;;;18.84;100.00;99616.23;1451460;89;21436;-81
2023/10/22 08:34:47;;;;;;;7.60;1.90;;;;;;;18.96;100.00;99619.00;1454925;89;21384;-83
2023/10/22 08:37:14;;;;;;;9.93;1.82;;;;;;;19.10;100.00;99625.38;1452602;90;21414;-83
2023/10/22 08:39:40;;;;;;;4.35;1.57;;;;;;;19.26;100.00;99626.63;1447256;89;21383;-83
2023/10/22 08:42:16;;;;;;;10.80;2.02;;;;;;;19.35;100.00;99627.96;1446068;90;21645;-83
2023/10/22 08:44:46;;;;;;;14.83;2.30;;;;;;;19.63;100.00;99634.66;1450508;89;21563;-83
2023/10/22 08:47:12;;;;;;;13.68;1.98;;;;;;;19.79;100.00;99624.67;1450572;90;21332;-81
2023/10/22 08:49:42;;;;;;;7.37;2.70;;;;;;;19.83;100.00;99643.83;1458312;89;21466;-81
2023/10/22 08:52:11;;;;;;;7.90;1.70;;;;;;;19.93;100.00;99639.24;1453650;89;21296;-80
2023/10/22 08:54:38;;;;;;;6.33;2.42;;;;;;;19.99;100.00;99637.80;1454029;89;21436;-82
2023/10/22 08:57:06;;;;;;;15.00;3.10;;;;;;;19.93;100.00;99652.14;1449168;90;22317;-82
2023/10/22 08:59:35;;;;;;;5.90;1.80;;;;;;;20.00;100.00;99652.88;1453245;90;21458;-82
2023/10/22 09:02:06;;;;;;;10.38;2.08;;;;;;;19.97;100.00;99646.62;1452986;90;21399;-82
2023/10/22 09:04:33;;;;;;;9.28;1.70;;;;;;;20.11;100.00;99641.89;1465298;90;21428;-81
2023/10/22 09:06:59;;;;;;;8.25;2.58;;;;;;;20.64;96.88;99635.70;1431865;90;22337;-84
2023/10/22 09:09:35;;;;;;;8.48;1.92;;;;;;;21.15;92.25;99626.09;1460777;90;21517;-83
2023/10/22 09:12:03;;;;;;;8.03;2.27;;;;;;;21.46;86.12;99630.78;1457864;89;21505;-82
2023/10/22 09:14:30;;;;;;;8.70;1.98;;;;;;;21.54;82.89;99638.48;1446608;90;21543;-80
2023/10/22 09:16:57;;;;;;;6.95;2.77;;;;;;;22.13;77.54;99633.41;1453775;89;21340;-81
2023/10/22 09:19:46;;;;;;;10.50;2.30;;;;;;;22.60;70.81;99638.53;1448984;90;21348;-83
2023/10/22 09:22:23;;;;;;;6.22;1.40;;;;;;;23.06;68.04;99660.83;1449082;89;21458;-82
2023/10/22 09:24:54;;;;;;;3.33;1.22;;;;;;;23.31;64.93;99640.94;1452446;89;21341;-82
2023/10/22 09:27:28;;;;;;;10.68;1.92;;;;;;;23.40;64.12;99636.72;1451171;90;22375;-82
2023/10/22 09:29:58;;;;;;;2.50;1.25;;;;;;;23.73;63.21;99639.55;1449713;89;21363;-80
2023/10/22 09:32:25;;;;;;;7.58;2.65;;;;;;;24.06;60.39;99652.89;1463502;89;22278;-82
2023/10/22 09:34:52;;;;;;;4.25;1.40;;;;;;;24.49;60.40;99646.28;1455925;89;21436;-83
2023/10/22 09:37:18;;;;;;;5.90;2.00;;;;;;;24.95;59.93;99642.00;1452865;90;21515;-83
2023/10/22 09:39:45;;;;;;;6.92;1.40;;;;;;;25.20;56.82;99637.31;1455106;89;21340;-82
2023/10/22 09:42:14;;;;;;;5.53;1.80;;;;;;;25.06;54.30;99645.59;1454482;90;22271;-83
2023/10/22 09:44:43;;;;;;;6.92;1.98;;;;;;;25.10;52.72;99652.64;1457831;89;22286;-80
2023/10/22 09:47:09;;;;;;;5.83;1.50;;;;;;;25.04;53.16;99638.27;1455692;89;22352;-81
2023/10/22 09:49:38;;;;;;;3.40;1.65;;;;;;;25.23;52.11;99648.67;1441850;90;21399;-83
2023/10/22 09:52:08;;;;;;;7.22;2.00;;;;;;;25.20;52.21;99650.84;1455721;89;21652;-80
2023/10/22 09:54:40;;;;;;;8.90;2.17;;;;;;;25.19;52.09;99649.74;1450226;90;21690;-80
2023/10/22 09:57:16;;;;;;;12.15;1.62;;;;;;;25.47;52.45;99637.69;1395864;89;21465;-79
2023/10/22 09:59:44;;;;;;;6.67;1.75;;;;;;;25.41;50.84;99634.15;1453325;89;21480;-82
2023/10/22 10:02:16;;;;;;;6.03;1.82;;;;;;;25.48;50.98;99640.66;1460700;89;21562;-84
2023/10/22 10:04:48;;;;;;;9.35;1.65;;;;;;;25.29;51.08;99634.08;1452948;89;21539;-83
2023/10/22 10:07:14;;;;;;;12.93;1.80;;;;;;;25.37;51.82;99641.16;1455023;90;21528;-80
2023/10/22 10:09:42;;;;;;;8.18;1.57;;;;;;;25.06;52.56;99655.06;1460758;89;22308;-83
2023/10/22 10:12:08;;;;;;;6.42;1.57;;;;;;;25.01;52.71;99645.55;1454766;89;21448;-83
2023/10/22 10:14:49;;;;;;;5.08;1.60;;;;;;;24.99;51.91;99626.86;1456988;90;22213;-84
2023/10/22 10:17:18;;;;;;;9.73;1.60;;;;;;;25.28;52.15;99632.45;1454021;89;21591;-84
2023/10/22 10:19:47;;;;;;;11.48;1.55;;;;;;;25.14;51.54;99637.53;1445823;89;21348;-83
2023/10/22 10:22:39;;;;;;;6.85;1.37;;;;;;;24.90;50.63;99641.97;1458240;89;21450;-84
2023/10/22 10:25:30;;;;;;;12.45;2.00;;;;;;;24.76;50.78;99636.19;1444649;90;21457;-83
2023/10/22 10:27:58;;;;;;;6.75;1.30;;;;;;;24.66;50.91;99638.84;1468564;90;21502;-82
2023/10/22 10:30:24;;;;;;;4.83;1.80;;;;;;;24.45;51.86;99657.31;1445118;90;21496;-81
2023/10/22 10:32:51;;;;;;;9.85;2.05;;;;;;;24.41;51.76;99642.66;1447198;90;21606;-83
2023/10/22 10:35:19;;;;;;;3.37;1.85;;;;;;;24.25;51.88;99639.80;1458822;90;21370;-81
2023/10/22 10:38:23;;;;;;;3.60;1.42;;;;;;;24.18;52.04;99652.73;1450512;90;21511;-82
2023/10/22 10:40:55;;;;;;;5.53;1.55;;;;;;;24.11;52.05;99644.02;1455304;89;21561;-85
2023/10/22 10:44:01;;;;;;;2.85;1.45;;;;;;;24.26;52.97;99644.16;1447741;89;21333;-84
2023/10/22 10:46:28;;;;;;;4.10;1.32;;;;;;;24.57;53.10;99653.92;1452800;90;21487;-82
2023/10/22 10:48:54;;;;;;;7.70;1.32;;;;;;;24.93;52.23;99656.88;1447766;89;22315;-83
2023/10/22 10:51:23;;;;;;;10.78;2.52;;;;;;;24.91;52.13;99659.83;1457013;90;22271;-85
2023/10/22 10:54:12;;;;;;;4.85;1.65;;;;;;;24.84;52.48;99674.13;1453091;90;22391;-85
2023/10/22 10:56:51;;;;;;;4.85;1.55;;;;;;;24.57;51.83;99672.86;1439233;89;21658;-85
2023/10/22 10:59:34;;;;;;;5.42;1.42;;;;;;;24.23;52.55;99685.77;1454537;89;21429;-84
2023/10/22 11:02:10;;;;;;;7.60;1.40;;;;;;;23.83;54.00;99681.56;1449890;89;21532;-82
2023/10/22 11:04:40;;;;;;;9.80;2.17;;;;;;;23.77;54.44;99683.38;1457618;89;21354;-83
2023/10/22 11:07:07;;;;;;;3.65;1.10;;;;;;;23.77;55.01;99692.84;1456704;90;21598;-82
2023/10/22 11:09:38;;;;;;;10.38;2.50;;;;;;;23.74;54.88;99683.89;1447151;90;22337;-81
2023/10/22 11:12:07;;;;;;;4.47;1.52;;;;;;;23.72;54.70;99685.20;1451479;89;21539;-82
2023/10/22 11:14:36;;;;;;;4.97;1.17;;;;;;;23.68;55.50;99682.17;1461617;89;22343;-81
2023/10/22 11:17:04;;;;;;;5.28;1.95;;;;;;;23.89;55.23;99685.13;1452023;89;21436;-81
2023/10/22 11:19:33;;;;;;;4.53;1.12;;;;;;;24.12;54.77;99679.44;1461264;90;22286;-83
2023/10/22 11:22:00;;;;;;;15.37;1.80;;;;;;;24.23;54.61;99679.01;1463525;89;22499;-83
2023/10/22 11:24:34;;;;;;;5.37;1.45;;;;;;;24.11;54.76;99679.16;1453272;89;21569;-83
2023/10/22 11:27:03;;;;;;;7.12;1.60;;;;;;;23.95;55.04;99676.02;1451317;89;21429;-85
2023/10/22 11:29:32;;;;;;;4.05;1.10;;;;;;;23.72;55.55;99677.91;1461166;89;22286;-84
2023/10/22 11:31:59;;;;;;;9.35;1.72;;;;;;;23.58;56.75;99673.93;1442900;90;21457;-86
2023/10/22 11:34:26;;;;;;;7.70;2.00;;;;;;;23.79;56.05;99689.87;1445755;90;21518;-83